Beecher, Wisconsin
Current Conditions -  °F | °C
As of 2:54 PM on Wednesday 26 Nov 2014 (Local Time) from KIMT Reporting Station
Overcast Overcast  
Wind Chill: 23°   Ceiling: 9500
Heat Index: 23°   Visibility: 9mi
Dew Point: 17°   Wind: 3mph
Humidity: 78%   Direction: 270°W
Pressure: 30.11"   Gusts: NA
Location:  45.6077°N, 87.9331°W
Report Text: KIMT 262054Z AUTO 27003KT 9SM SCT045 OVC095 M05/M08 A3011 RMK AO2 SNE35 SLP223 P0000 60000 T10501083 56001
Loading
Personal Weather Stations






























Interactive Weather Map New forecast layout! Learn more

10-Day Weather Forecast

Advertisements
Track Severe Weather on mobile